NCAR-RAP Real-Time Weather Data

Output produced by METARs form (08 May 2021  15:59 UTC)
found at http://weather.rap.ucar.edu/surface/
 
KORL 081553Z 05007KT 10SM CLR 26/09 A3014 RMK AO2 SLP209 T02610089
KORL 081453Z VRB06KT 10SM CLR 24/10 A3014 RMK AO2 SLP210 T02440100 50007
KORL 081353Z 02009KT 10SM CLR 23/11 A3014 RMK AO2 SLP211 T02330106
KORL 081253Z 03008KT 10SM CLR 22/11 A3014 RMK AO2 SLP210 T02170106 $
KORL 081153Z 01009KT 10SM CLR 19/09 A3012 RMK AO2 SLP203 T01940094 10211 20183 53023 $
KORL 081053Z AUTO 01008KT 10SM CLR 18/09 A3009 RMK AO2 SLP193 T01830089 $
KORL 080953Z AUTO 36008KT 10SM CLR 19/09 A3007 RMK AO2 SLP184 T01940089 $
KORL 080853Z AUTO 01007KT 10SM CLR 20/08 A3005 RMK AO2 SLP180 T02000083 55003 $
KORL 080753Z AUTO 01003KT 10SM CLR 20/16 A3005 RMK AO2 SLP178 T02000161 $
KORL 080653Z AUTO 34003KT 10SM CLR 21/15 A3005 RMK AO2 SLP180 T02110150 $
KORL 080553Z AUTO 00000KT 10SM CLR 21/14 A3006 RMK AO2 SLP183 T02060144 10272 20200 58001 $
KORL 080453Z AUTO 00000KT 10SM CLR 20/14 A3007 RMK AO2 SLP186 T02000139 402890200 $
KORL 080353Z AUTO 00000KT 10SM CLR 21/14 A3007 RMK AO2 SLP186 T02060139 $
KORL 080253Z AUTO 00000KT 10SM CLR 21/13 A3007 RMK AO2 SLP184 T02060128 $
KORL 080153Z AUTO 03005KT 10SM 24/06 A3004 RMK AO2 SLP175 T02440056 $
KORL 080053Z 36006KT 10SM CLR 26/05 A3001 RMK AO2 SLP165 T02610050
KORL 072353Z 36007KT 10SM CLR 27/03 A2999 RMK AO2 SLP157 T02720028 10289 20272 53004
KORL 072253Z 33006G15KT 10SM CLR 28/03 A2998 RMK AO2 SLP154 T02830028
KORL 072153Z 36012KT 10SM CLR 29/04 A2997 RMK AO2 SLP151 T02890039
KORL 072053Z 32010G20KT 10SM CLR 29/07 A2997 RMK AO2 SLP152 T02890072 56018
KORL 071953Z 30014KT 10SM CLR 29/07 A2999 RMK AO2 SLP157 T02890067
KORL 071853Z 28017G22KT 10SM CLR 29/07 A3001 RMK AO2 SLP164 T02890067
KORL 071753Z 31012KT 10SM CLR 28/07 A3003 RMK AO2 SLP169 T02780072 10283 20222 58009
KORL 071653Z 30012KT 10SM CLR 27/08 A3004 RMK AO2 SLP174 T02720078
KORL 071553Z 36012KT 10SM CLR 27/08 A3006 RMK AO2 SLP180 T02670078
KORL 071453Z 34010KT 10SM CLR 25/09 A3005 RMK AO2 SLP178 T02500094 51008
KORL 071353Z 32009KT 10SM CLR 24/12 A3004 RMK AO2 SLP177 T02390117
KORL 071253Z 34009KT 10SM CLR 23/14 A3004 RMK AO2 SLP177 T02330139
KORL 071153Z 34008KT 10SM CLR 22/16 A3003 RMK AO2 SLP170 70020 T02220156 10244 20222 53017
KORL 071053Z AUTO 34007KT 10SM CLR 22/18 A3000 RMK AO2 SLP162 T02220178
KORL 070953Z AUTO 32007KT 10SM CLR 23/21 A2998 RMK AO2 SLP154 T02280211
KORL 070853Z AUTO 30010KT 10SM CLR 23/21 A2998 RMK AO2 SLP152 T02330211 55006
KORL 070753Z AUTO 31004KT 10SM FEW016 23/21 A2997 RMK AO2 SLP151 T02330206
KORL 070653Z AUTO 28007KT 10SM CLR 24/21 A2997 RMK AO2 SLP153 T02390206
KORL 070553Z AUTO 27007KT 10SM CLR 24/20 A2999 RMK AO2 SLP159 T02440200 10289 20244 58003
KORL 070453Z AUTO 29008KT 10SM FEW065 25/20 A3000 RMK AO2 SLP162 T02500200 403170244
KORL 070353Z AUTO 28007KT 10SM FEW050 26/19 A3001 RMK AO2 SLP164 T02560194
KORL 070253Z AUTO 32006KT 10SM BKN049 BKN055 27/19 A3000 RMK AO2 SLP162 T02670194 53007
KORL 070153Z AUTO 31003KT 10SM CLR 27/20 A2998 RMK AO2 SLP155 T02670200
KORL 070053Z 30007KT 10SM FEW002 28/19 A2999 RMK AO2 SLP157 T02780194
KORL 070035Z 29008KT 10SM FEW002 28/19 A2999 RMK AO2 T02780194
KORL 062353Z 31011KT 10SM CLR 29/19 A2998 RMK AO2 SLP154 60018 T02890189 10317 20244 53011
KORL 062253Z 31014KT 10SM SCT048 BKN065 BKN080 31/20 A2995 RMK AO2 LTG DSNT NE SLP145 T03060200
KORL 062153Z 31010KT 10SM CLR 31/21 A2995 RMK AO2 SLP143 T03060206
KORL 062053Z 30010KT 10SM CLR 31/21 A2995 RMK AO2 SLP143 60018 T03060206 58014
KORL 061953Z 33007KT 10SM CLR 27/21 A2997 RMK AO2 RAE17 TSE16 SLP152 P0003 T02720211
KORL 061921Z 35011G17KT 10SM SCT034 SCT060 SCT090 26/22 A2999 RMK AO2 LTG DSNT E AND SE RAE17 TSE16 P0003 T02610222
KORL 061856Z 32008KT 3SM TSRA BKN039 BKN047 OVC060 24/21 A3001 RMK AO2 LTG DSNT E AND SE P0001 T02440206
KORL 061853Z 32013KT 1 1/2SM R07/3500VP6000FT TSRA BKN037 BKN049 OVC060 24/21 A3002 RMK AO2 PK WND 31026/1836 WSHFT 1811 LTG DSNT E AND SE RAB1758E07B35 TSB32 SLP167 P0015 T02440206
KORL 061844Z 31016G26KT 1 3/4SM R07/4000VP6000FT +TSRA SCT039 BKN050 OVC070 26/21 A3003 RMK AO2 PK WND 31026/1836 WSHFT 1811 VIS 3/4V5 LTG DSNT N-SE RAB1758E07B35 TSB32 P0009 T02560211
KORL 061832Z 33015G21KT 10SM TS FEW035 BKN050 BKN070 27/21 A3001 RMK AO2 WSHFT 1811 LTG DSNT ALQDS RAB1758E07 TSB32 P0000 T02720206
KORL 061826Z 34013G20KT 10SM FEW032 BKN050 BKN070 28/21 A3001 RMK AO2 WSHFT 1811 LTG DSNT ALQDS RAB1758E07 P0000 T02780206
KORL 061816Z 34018G25KT 10SM VCTS FEW033 FEW070 SCT090 31/21 A3000 RMK AO2 LTG DSNT ALQDS RAB1758E07 PRESRR P0000 T03060206
KORL 061753Z 24010G19KT 10SM CLR 32/23 A2999 RMK AO2 LTG DSNT ALQDS RAB19E35 SLP156 P0002 60002 T03170228 10317 20261 58020
KORL 061653Z 23010G15KT 10SM CLR 31/21 A3001 RMK AO2 LTG DSNT N AND NW SLP165 T03110211